createdAt,value
2023-08-11T00:01:30.897Z,94441.38
2023-08-11T00:03:58.460Z,94437.03
2023-08-11T00:06:26.519Z,94439.88
2023-08-11T00:08:56.455Z,94447.75
2023-08-11T00:11:23.846Z,94445.59
2023-08-11T00:13:50.774Z,94449.75
2023-08-11T00:16:17.628Z,94441.44
2023-08-11T00:18:44.437Z,94450.25
2023-08-11T00:21:11.462Z,94450.78
2023-08-11T00:23:40.758Z,94451.19
2023-08-11T00:26:07.782Z,94457.84
2023-08-11T00:28:34.578Z,94454.31
2023-08-11T00:31:01.376Z,94452.31
2023-08-11T00:33:28.119Z,94454.09
2023-08-11T00:35:54.987Z,94454.63
2023-08-11T00:38:27.385Z,94456.16
2023-08-11T00:40:54.138Z,94454.97
2023-08-11T00:43:20.815Z,94454.03
2023-08-11T00:45:50.275Z,94466.22
2023-08-11T00:48:17.274Z,94463.91
2023-08-11T00:50:44.197Z,94468.72
2023-08-11T00:53:11.472Z,94468.44
2023-08-11T00:55:38.949Z,94473.59
2023-08-11T00:58:07.104Z,94468.84
2023-08-11T01:00:34.024Z,94473.59
2023-08-11T01:03:00.835Z,94467.38
2023-08-11T01:05:31.951Z,94468.16
2023-08-11T01:08:35.437Z,94464.00
2023-08-11T01:11:18.651Z,94459.66
2023-08-11T01:13:53.624Z,94465.97
2023-08-11T01:16:23.433Z,94470.78
2023-08-11T01:18:51.430Z,94466.03
2023-08-11T01:21:18.982Z,94474.75
2023-08-11T01:23:45.936Z,94473.22
2023-08-11T01:26:12.974Z,94475.22
2023-08-11T01:28:41.883Z,94467.75
2023-08-11T01:31:09.721Z,94471.75
2023-08-11T01:33:36.483Z,94474.09
2023-08-11T01:36:03.264Z,94479.63
2023-08-11T01:38:30.107Z,94470.63
2023-08-11T01:40:58.844Z,94475.81
2023-08-11T01:43:27.352Z,94476.66
2023-08-11T01:45:54.771Z,94483.03
2023-08-11T01:48:22.565Z,94473.28
2023-08-11T01:50:49.485Z,94480.78
2023-08-11T01:53:16.434Z,94478.84
2023-08-11T01:55:44.183Z,94480.19
2023-08-11T01:58:11.218Z,94472.25
2023-08-11T02:00:37.901Z,94474.66
2023-08-11T02:03:04.816Z,94477.84
2023-08-11T02:05:31.699Z,94475.59
2023-08-11T02:07:59.411Z,94474.53
2023-08-11T02:10:26.137Z,94474.59
2023-08-11T02:12:52.891Z,94475.00
2023-08-11T02:15:20.029Z,94472.66
2023-08-11T02:17:46.879Z,94476.28
2023-08-11T02:20:23.214Z,94476.03
2023-08-11T02:22:51.026Z,94461.88
2023-08-11T02:25:18.075Z,94462.75
2023-08-11T02:27:45.250Z,94463.16
2023-08-11T02:30:12.851Z,94465.25
2023-08-11T02:32:41.141Z,94462.44
2023-08-11T02:35:08.399Z,94462.59
2023-08-11T02:37:35.280Z,94473.97
2023-08-11T02:40:02.077Z,94474.66
2023-08-11T02:42:28.870Z,94474.28
2023-08-11T02:44:55.510Z,94480.97
2023-08-11T02:47:22.264Z,94481.81
2023-08-11T02:49:49.127Z,94475.88
2023-08-11T02:52:16.080Z,94481.44
2023-08-11T02:54:43.027Z,94490.56
2023-08-11T02:57:09.765Z,94480.66
2023-08-11T02:59:36.526Z,94474.34
2023-08-11T03:02:03.438Z,94478.28
2023-08-11T03:04:30.322Z,94481.81
2023-08-11T03:06:57.100Z,94484.56
2023-08-11T03:09:23.839Z,94480.25
2023-08-11T03:11:50.650Z,94473.66
2023-08-11T03:14:18.262Z,94468.94
2023-08-11T03:16:45.835Z,94475.88
2023-08-11T03:19:12.743Z,94471.91
2023-08-11T03:21:39.827Z,94470.72
2023-08-11T03:24:07.189Z,94470.72
2023-08-11T03:26:34.320Z,94471.44
2023-08-11T03:29:01.016Z,94477.28
2023-08-11T03:31:27.732Z,94478.44
2023-08-11T03:33:54.528Z,94477.28
2023-08-11T03:36:21.549Z,94474.88
2023-08-11T03:38:49.409Z,94473.38
2023-08-11T03:41:16.189Z,94472.56
2023-08-11T03:43:42.994Z,94472.28
2023-08-11T03:46:09.931Z,94485.94
2023-08-11T03:48:36.880Z,94482.00
2023-08-11T03:51:03.844Z,94489.94
2023-08-11T03:53:35.001Z,94484.06
2023-08-11T03:56:01.938Z,94484.44
2023-08-11T03:58:28.637Z,94490.41
2023-08-11T04:00:56.223Z,94498.66
2023-08-11T04:03:23.667Z,94494.38
2023-08-11T04:05:50.581Z,94494.72
2023-08-11T04:08:18.054Z,94497.47
2023-08-11T04:10:44.772Z,94495.94
2023-08-11T04:13:11.597Z,94490.41
2023-08-11T04:15:40.121Z,94486.72
2023-08-11T04:18:06.945Z,94486.31
2023-08-11T04:20:34.598Z,94481.94
2023-08-11T04:23:01.479Z,94485.47
2023-08-11T04:25:28.195Z,94486.22
2023-08-11T04:27:56.841Z,94486.53
2023-08-11T04:30:24.230Z,94480.16
2023-08-11T04:32:51.966Z,94485.47
2023-08-11T04:35:18.856Z,94499.91
2023-08-11T04:37:45.942Z,94491.66
2023-08-11T04:40:15.194Z,94494.00
2023-08-11T04:42:42.062Z,94486.84
2023-08-11T04:45:10.176Z,94500.03
2023-08-11T04:47:37.494Z,94497.53
2023-08-11T04:50:04.773Z,94496.28
2023-08-11T04:52:31.487Z,94494.34
2023-08-11T04:54:58.952Z,94491.56
2023-08-11T04:57:25.758Z,94492.19
2023-08-11T04:59:52.501Z,94500.69
2023-08-11T05:02:19.454Z,94490.28
2023-08-11T05:04:46.120Z,94487.72
2023-08-11T05:07:12.809Z,94488.03
2023-08-11T05:09:39.610Z,94491.50
2023-08-11T05:12:06.767Z,94490.63
2023-08-11T05:14:33.791Z,94496.16
2023-08-11T05:17:03.819Z,94499.13
2023-08-11T05:19:32.443Z,94500.16
2023-08-11T05:21:59.252Z,94505.97
2023-08-11T05:24:26.023Z,94507.75
2023-08-11T05:26:52.809Z,94506.25
2023-08-11T05:29:19.595Z,94504.47
2023-08-11T05:31:46.409Z,94503.00
2023-08-11T05:34:13.345Z,94507.63
2023-08-11T05:36:40.047Z,94509.91
2023-08-11T05:39:09.321Z,94514.59
2023-08-11T05:41:36.116Z,94508.16
2023-08-11T05:44:02.980Z,94512.47
2023-08-11T05:46:32.131Z,94508.50
2023-08-11T05:48:58.893Z,94506.94
2023-08-11T05:51:25.975Z,94500.88
2023-08-11T05:53:54.433Z,94506.09
2023-08-11T05:56:21.500Z,94512.97
2023-08-11T05:58:48.648Z,94504.63
2023-08-11T06:01:15.459Z,94511.19
2023-08-11T06:03:42.252Z,94511.06
2023-08-11T06:06:09.040Z,94508.63
2023-08-11T06:08:35.789Z,94505.72
2023-08-11T06:11:02.595Z,94503.28
2023-08-11T06:13:29.468Z,94493.72
2023-08-11T06:15:56.234Z,94488.47
2023-08-11T06:18:23.023Z,94487.25
2023-08-11T06:20:50.621Z,94485.34
2023-08-11T06:23:18.056Z,94491.44
2023-08-11T06:25:44.848Z,94485.53
2023-08-11T06:28:11.579Z,94493.88
2023-08-11T06:30:38.827Z,94501.94
2023-08-11T06:33:06.045Z,94491.94
2023-08-11T06:35:33.618Z,94486.22
2023-08-11T06:38:00.674Z,94486.31
2023-08-11T06:40:27.573Z,94487.84
2023-08-11T06:42:54.339Z,94478.59
2023-08-11T06:45:21.109Z,94483.09
2023-08-11T06:47:47.977Z,94494.53
2023-08-11T06:50:14.851Z,94477.44
2023-08-11T06:52:41.589Z,94483.72
2023-08-11T06:55:08.597Z,94486.13
2023-08-11T06:57:36.821Z,94479.41
2023-08-11T07:00:05.772Z,94482.22
2023-08-11T07:02:32.478Z,94479.72
2023-08-11T07:04:59.240Z,94473.50
2023-08-11T07:07:26.026Z,94483.69
2023-08-11T07:09:52.761Z,94483.16
2023-08-11T07:12:19.410Z,94479.22
2023-08-11T07:14:46.278Z,94478.44
2023-08-11T07:17:13.130Z,94472.81
2023-08-11T07:19:40.035Z,94479.53
2023-08-11T07:22:06.776Z,94471.19
2023-08-11T07:24:33.615Z,94476.94
2023-08-11T07:27:00.875Z,94470.56
2023-08-11T07:29:27.582Z,94468.66
2023-08-11T07:31:54.341Z,94468.88
2023-08-11T07:34:21.061Z,94472.91
2023-08-11T07:36:48.134Z,94475.25
2023-08-11T07:39:22.606Z,94470.59
2023-08-11T07:41:50.979Z,94475.50
2023-08-11T07:44:18.018Z,94474.91
2023-08-11T07:46:44.832Z,94474.53
2023-08-11T07:49:11.641Z,94475.63
2023-08-11T07:51:40.786Z,94483.31
2023-08-11T07:54:07.890Z,94484.38
2023-08-11T07:56:35.068Z,94475.66
2023-08-11T07:59:01.963Z,94483.63
2023-08-11T08:01:29.092Z,94491.34
2023-08-11T08:03:57.070Z,94488.88
2023-08-11T08:06:23.944Z,94491.31
2023-08-11T08:08:50.701Z,94489.19
2023-08-11T08:11:17.876Z,94488.31
2023-08-11T08:13:44.774Z,94488.44
2023-08-11T08:16:11.620Z,94489.47
2023-08-11T08:18:38.387Z,94488.00
2023-08-11T08:21:05.154Z,94489.72
2023-08-11T08:23:31.903Z,94486.75
2023-08-11T08:25:58.842Z,94493.13
2023-08-11T08:28:25.983Z,94495.09
2023-08-11T08:30:53.126Z,94491.72
2023-08-11T08:33:19.980Z,94494.06
2023-08-11T08:35:46.925Z,94481.66
2023-08-11T08:38:13.626Z,94478.38
2023-08-11T08:40:41.044Z,94478.38
2023-08-11T08:43:09.927Z,94478.19
2023-08-11T08:45:38.700Z,94473.97
2023-08-11T08:48:09.817Z,94476.53
2023-08-11T08:50:38.854Z,94478.78
2023-08-11T08:53:05.894Z,94475.66
2023-08-11T08:55:33.343Z,94475.25
2023-08-11T08:58:01.933Z,94470.78
2023-08-11T09:00:29.456Z,94474.69
2023-08-11T09:02:57.717Z,94473.47
2023-08-11T09:05:25.660Z,94478.09
2023-08-11T09:07:52.423Z,94473.00
2023-08-11T09:10:19.668Z,94472.19
2023-08-11T09:12:46.372Z,94462.66
2023-08-11T09:15:13.808Z,94460.47
2023-08-11T09:17:41.397Z,94459.75
2023-08-11T09:20:11.828Z,94446.09
2023-08-11T09:22:39.622Z,94452.66
2023-08-11T09:25:07.242Z,94448.97
2023-08-11T09:27:34.513Z,94451.50
2023-08-11T09:30:01.403Z,94447.13
2023-08-11T09:32:28.331Z,94453.22
2023-08-11T09:34:55.270Z,94449.41
2023-08-11T09:37:22.052Z,94446.88
2023-08-11T09:39:57.065Z,94446.97
2023-08-11T09:42:27.540Z,94452.16
2023-08-11T09:44:54.394Z,94450.50
2023-08-11T09:47:23.209Z,94453.72
2023-08-11T09:49:50.191Z,94443.78
2023-08-11T09:52:18.554Z,94453.00
2023-08-11T09:54:45.876Z,94456.97
2023-08-11T09:57:14.614Z,94461.44
2023-08-11T09:59:45.656Z,94454.84
2023-08-11T10:02:18.674Z,94459.25
2023-08-11T10:04:58.346Z,94450.16
2023-08-11T10:07:35.229Z,94454.00
2023-08-11T10:10:09.706Z,94454.72
2023-08-11T10:12:41.892Z,94457.47
2023-08-11T10:15:12.298Z,94463.81
2023-08-11T10:17:39.998Z,94465.28
2023-08-11T10:20:08.632Z,94461.34
2023-08-11T10:22:35.551Z,94457.84
2023-08-11T10:25:05.672Z,94461.47
2023-08-11T10:27:32.848Z,94459.34
2023-08-11T10:30:00.728Z,94462.34
2023-08-11T10:32:32.567Z,94454.59
2023-08-11T10:34:59.314Z,94451.66
2023-08-11T10:37:36.845Z,94451.22
2023-08-11T10:40:08.796Z,94454.44
2023-08-11T10:42:40.375Z,94450.94
2023-08-11T10:45:15.839Z,94452.59
2023-08-11T10:47:53.641Z,94451.38
2023-08-11T10:50:22.280Z,94452.84
2023-08-11T10:53:05.636Z,94451.00
2023-08-11T10:55:37.448Z,94440.88
2023-08-11T10:58:15.446Z,94442.75
2023-08-11T11:00:42.664Z,94451.16
2023-08-11T11:03:10.730Z,94452.69
2023-08-11T11:05:37.469Z,94449.47
2023-08-11T11:08:04.392Z,94446.38
2023-08-11T11:10:43.849Z,94448.03
2023-08-11T11:13:15.560Z,94437.13
2023-08-11T11:15:42.425Z,94432.41
2023-08-11T11:18:09.251Z,94430.59
2023-08-11T11:20:35.995Z,94430.16
2023-08-11T11:23:03.796Z,94427.97
2023-08-11T11:25:30.511Z,94428.06
2023-08-11T11:27:57.298Z,94427.53
2023-08-11T11:30:24.394Z,94423.66
2023-08-11T11:32:51.135Z,94413.09
2023-08-11T11:35:18.761Z,94421.38
2023-08-11T11:37:45.984Z,94422.81
2023-08-11T11:40:13.231Z,94424.41
2023-08-11T11:42:40.093Z,94420.47
2023-08-11T11:45:08.449Z,94434.25
2023-08-11T11:47:35.507Z,94428.13
2023-08-11T11:50:08.480Z,94431.47
2023-08-11T11:52:37.674Z,94426.78
2023-08-11T11:55:07.454Z,94428.50
2023-08-11T11:57:35.149Z,94429.28
2023-08-11T12:00:04.210Z,94431.78
2023-08-11T12:02:31.449Z,94429.06
2023-08-11T12:04:58.766Z,94426.69
2023-08-11T12:07:33.203Z,94430.94
2023-08-11T12:10:00.629Z,94431.38
2023-08-11T12:12:28.423Z,94428.41
2023-08-11T12:15:02.222Z,94423.19
2023-08-11T12:17:36.751Z,94421.41
2023-08-11T12:20:11.318Z,94414.59
2023-08-11T12:22:38.108Z,94414.88
2023-08-11T12:25:05.210Z,94419.69
2023-08-11T12:27:32.007Z,94420.16
2023-08-11T12:29:58.817Z,94416.47
2023-08-11T12:32:25.522Z,94422.81
2023-08-11T12:34:52.610Z,94419.63
2023-08-11T12:37:19.400Z,94420.09
2023-08-11T12:39:46.058Z,94415.31
2023-08-11T12:42:13.297Z,94415.78
2023-08-11T12:44:40.656Z,94424.88
2023-08-11T12:47:07.644Z,94422.91
2023-08-11T12:49:34.506Z,94425.81
2023-08-11T12:52:01.320Z,94419.75
2023-08-11T12:54:27.978Z,94425.47
2023-08-11T12:56:54.726Z,94422.81
2023-08-11T12:59:21.460Z,94423.25
2023-08-11T13:01:48.252Z,94425.13
2023-08-11T13:04:15.141Z,94422.75
2023-08-11T13:06:41.800Z,94414.38
2023-08-11T13:09:08.737Z,94421.41
2023-08-11T13:11:35.603Z,94414.88
2023-08-11T13:14:03.714Z,94417.34
2023-08-11T13:16:30.581Z,94411.53
2023-08-11T13:18:57.416Z,94407.25
2023-08-11T13:21:24.307Z,94407.06
2023-08-11T13:23:51.199Z,94408.00
2023-08-11T13:26:18.060Z,94406.94
2023-08-11T13:28:44.834Z,94402.09
2023-08-11T13:31:11.541Z,94403.59
2023-08-11T13:33:39.059Z,94399.59
2023-08-11T13:36:06.244Z,94406.56
2023-08-11T13:38:33.135Z,94391.50
2023-08-11T13:40:59.930Z,94394.78
2023-08-11T13:43:26.674Z,94398.53
2023-08-11T13:45:54.617Z,94387.31
2023-08-11T13:48:24.755Z,94392.97
2023-08-11T13:50:52.543Z,94392.59
2023-08-11T13:53:19.391Z,94392.69
2023-08-11T13:55:46.155Z,94387.25
2023-08-11T13:58:13.246Z,94392.00
2023-08-11T14:00:40.048Z,94395.13
2023-08-11T14:03:07.178Z,94392.41
2023-08-11T14:05:34.060Z,94388.25
2023-08-11T14:08:00.849Z,94388.63
2023-08-11T14:10:27.561Z,94387.44
2023-08-11T14:12:54.718Z,94383.63
2023-08-11T14:15:21.458Z,94378.59
2023-08-11T14:17:48.239Z,94379.34
2023-08-11T14:20:15.133Z,94374.50
2023-08-11T14:22:41.918Z,94372.84
2023-08-11T14:25:08.910Z,94376.13
2023-08-11T14:27:35.730Z,94376.47
2023-08-11T14:30:02.497Z,94377.75
2023-08-11T14:32:29.466Z,94366.72
2023-08-11T14:34:56.677Z,94376.00
2023-08-11T14:37:23.457Z,94370.66
2023-08-11T14:39:50.392Z,94365.69
2023-08-11T14:42:17.735Z,94368.34
2023-08-11T14:44:44.558Z,94362.53
2023-08-11T14:47:15.159Z,94358.63
2023-08-11T14:49:43.837Z,94360.50
2023-08-11T14:52:11.897Z,94357.75
2023-08-11T14:54:39.018Z,94357.16
2023-08-11T14:57:06.627Z,94356.72
2023-08-11T14:59:33.344Z,94357.44
2023-08-11T15:02:00.144Z,94351.41
2023-08-11T15:04:27.819Z,94344.00
2023-08-11T15:06:54.784Z,94351.59
2023-08-11T15:09:21.650Z,94349.53
2023-08-11T15:11:49.301Z,94353.56
2023-08-11T15:14:16.732Z,94357.03
2023-08-11T15:16:43.618Z,94355.41
2023-08-11T15:19:10.406Z,94353.66
2023-08-11T15:21:37.236Z,94349.38
2023-08-11T15:24:04.121Z,94352.88
2023-08-11T15:26:30.853Z,94349.28
2023-08-11T15:28:58.224Z,94346.53
2023-08-11T15:31:25.094Z,94343.09
2023-08-11T15:33:51.865Z,94349.44
2023-08-11T15:36:18.627Z,94346.69
2023-08-11T15:38:45.407Z,94341.38
2023-08-11T15:41:12.146Z,94340.03
2023-08-11T15:43:38.876Z,94339.63
2023-08-11T15:46:05.867Z,94336.13
2023-08-11T15:48:33.774Z,94335.34
2023-08-11T15:51:00.552Z,94332.44
2023-08-11T15:53:27.366Z,94332.00
2023-08-11T15:55:54.566Z,94329.25
2023-08-11T15:58:21.276Z,94328.56
2023-08-11T16:00:49.272Z,94322.31
2023-08-11T16:03:16.508Z,94323.19
2023-08-11T16:05:43.902Z,94326.84
2023-08-11T16:08:10.576Z,94313.69
2023-08-11T16:10:37.950Z,94319.19
2023-08-11T16:13:04.885Z,94319.47
2023-08-11T16:15:32.192Z,94320.13
2023-08-11T16:17:58.942Z,94319.97
2023-08-11T16:20:25.821Z,94327.63
2023-08-11T16:22:53.150Z,94331.16
2023-08-11T16:26:50.098Z,94324.22
2023-08-11T16:29:16.856Z,94323.47
2023-08-11T16:31:43.739Z,94312.78
2023-08-11T16:34:10.632Z,94317.44
2023-08-11T16:36:37.352Z,94311.78
2023-08-11T16:39:04.313Z,94311.19
2023-08-11T16:41:31.063Z,94316.00
2023-08-11T16:43:57.876Z,94316.66
2023-08-11T16:46:24.742Z,94309.91
2023-08-11T16:48:51.460Z,94315.41
2023-08-11T16:51:18.188Z,94313.84
2023-08-11T16:53:44.912Z,94311.47
2023-08-11T16:56:11.736Z,94313.53
2023-08-11T16:58:38.641Z,94310.88
2023-08-11T17:01:06.089Z,94316.25
2023-08-11T17:03:33.165Z,94303.53
2023-08-11T17:05:59.989Z,94299.31
2023-08-11T17:08:26.790Z,94306.97
2023-08-11T17:10:53.517Z,94311.50
2023-08-11T17:13:20.284Z,94317.25
2023-08-11T17:15:46.979Z,94317.72
2023-08-11T17:18:13.810Z,94310.53
2023-08-11T17:20:40.614Z,94315.53
2023-08-11T17:23:07.543Z,94315.81
2023-08-11T17:25:34.503Z,94311.00
2023-08-11T17:28:01.189Z,94308.19
2023-08-11T17:30:30.776Z,94311.78
2023-08-11T17:32:58.740Z,94311.78
2023-08-11T17:35:26.070Z,94313.09
2023-08-11T17:37:53.406Z,94319.00
2023-08-11T17:40:20.134Z,94318.75
2023-08-11T17:42:46.865Z,94322.34
2023-08-11T17:45:13.727Z,94315.44
2023-08-11T17:47:42.531Z,94318.53
2023-08-11T17:50:09.659Z,94321.91
2023-08-11T17:52:36.396Z,94318.81
2023-08-11T17:55:03.269Z,94318.31
2023-08-11T17:57:30.354Z,94321.88
2023-08-11T17:59:57.114Z,94327.47
2023-08-11T18:02:23.847Z,94334.91
2023-08-11T18:04:50.554Z,94336.94
2023-08-11T18:07:17.250Z,94333.13
2023-08-11T18:09:44.870Z,94339.47
2023-08-11T18:12:11.977Z,94342.00
2023-08-11T18:14:44.194Z,94351.72
2023-08-11T18:17:10.898Z,94340.41
2023-08-11T18:19:37.591Z,94344.97
2023-08-11T18:22:04.441Z,94343.88
2023-08-11T18:24:31.216Z,94341.56
2023-08-11T18:26:57.875Z,94344.03
2023-08-11T18:29:24.554Z,94336.34
2023-08-11T18:31:51.467Z,94340.69
2023-08-11T18:34:18.254Z,94340.66
2023-08-11T18:36:45.003Z,94339.25
2023-08-11T18:39:12.840Z,94336.66
2023-08-11T18:41:39.532Z,94342.44
2023-08-11T18:44:06.390Z,94340.56
2023-08-11T18:46:35.119Z,94343.06
2023-08-11T18:49:05.029Z,94347.81
2023-08-11T18:51:32.004Z,94347.22
2023-08-11T18:53:59.138Z,94340.22
2023-08-11T18:56:25.948Z,94348.56
2023-08-11T18:58:52.668Z,94355.13
2023-08-11T19:01:19.498Z,94344.63
2023-08-11T19:03:46.528Z,94345.00
2023-08-11T19:06:14.083Z,94358.13
2023-08-11T19:08:40.955Z,94361.66
2023-08-11T19:11:07.672Z,94367.59
2023-08-11T19:13:34.430Z,94373.81
2023-08-11T19:16:01.223Z,94370.44
2023-08-11T19:18:28.222Z,94379.53
2023-08-11T19:20:57.773Z,94376.25
2023-08-11T19:23:24.486Z,94379.50
2023-08-11T19:25:51.466Z,94374.94
2023-08-11T19:28:18.309Z,94370.78
2023-08-11T19:30:45.052Z,94372.44
2023-08-11T19:33:11.900Z,94376.75
2023-08-11T19:35:38.584Z,94381.22
2023-08-11T19:38:05.681Z,94372.66
2023-08-11T19:40:32.407Z,94369.69
2023-08-11T19:42:59.202Z,94376.22
2023-08-11T19:45:25.919Z,94378.81
2023-08-11T19:47:52.662Z,94372.59
2023-08-11T19:50:22.880Z,94375.47
2023-08-11T19:52:49.734Z,94384.41
2023-08-11T19:55:16.710Z,94378.13
2023-08-11T19:57:43.446Z,94377.97
2023-08-11T20:00:11.007Z,94383.06
2023-08-11T20:02:37.738Z,94387.44
2023-08-11T20:05:04.847Z,94373.00
2023-08-11T20:07:31.578Z,94381.06
2023-08-11T20:09:58.268Z,94380.03
2023-08-11T20:12:24.962Z,94382.63
2023-08-11T20:14:51.721Z,94373.16
2023-08-11T20:17:18.571Z,94382.81
2023-08-11T20:19:45.379Z,94378.97
2023-08-11T20:22:12.117Z,94384.41
2023-08-11T20:24:38.922Z,94383.31
2023-08-11T20:27:05.714Z,94380.75
2023-08-11T20:29:32.425Z,94379.31
2023-08-11T20:31:59.237Z,94372.38
2023-08-11T20:34:27.614Z,94377.38
2023-08-11T20:36:54.368Z,94376.19
2023-08-11T20:39:22.855Z,94366.91
2023-08-11T20:41:50.985Z,94368.50
2023-08-11T20:44:17.847Z,94366.56
2023-08-11T20:46:44.623Z,94371.50
2023-08-11T20:49:11.414Z,94370.00
2023-08-11T20:51:38.166Z,94364.25
2023-08-11T20:54:05.150Z,94367.22
2023-08-11T20:56:32.070Z,94362.03
2023-08-11T20:58:58.842Z,94374.78
2023-08-11T21:01:25.762Z,94364.38
2023-08-11T21:03:52.725Z,94364.84
2023-08-11T21:06:20.213Z,94371.38
2023-08-11T21:08:48.629Z,94366.44
2023-08-11T21:11:15.861Z,94365.06
2023-08-11T21:13:42.660Z,94375.09
2023-08-11T21:16:09.630Z,94371.56
2023-08-11T21:18:36.382Z,94374.69
2023-08-11T21:21:03.086Z,94373.59
2023-08-11T21:23:29.828Z,94381.34
2023-08-11T21:25:57.027Z,94378.25
2023-08-11T21:28:23.802Z,94370.03
2023-08-11T21:31:03.817Z,94371.00
2023-08-11T21:33:34.649Z,94375.94
2023-08-11T21:36:01.382Z,94371.78
2023-08-11T21:38:28.156Z,94366.06
2023-08-11T21:40:54.885Z,94366.66
2023-08-11T21:43:21.639Z,94359.06
2023-08-11T21:45:48.362Z,94366.81
2023-08-11T21:48:15.218Z,94367.75
2023-08-11T21:50:42.018Z,94369.16
2023-08-11T21:53:22.480Z,94364.50
2023-08-11T21:55:50.403Z,94367.91
2023-08-11T21:58:17.125Z,94365.56
2023-08-11T22:00:45.098Z,94365.25
2023-08-11T22:03:12.151Z,94364.78
2023-08-11T22:05:39.074Z,94369.59
2023-08-11T22:08:06.116Z,94374.69
2023-08-11T22:10:32.880Z,94375.91
2023-08-11T22:12:59.702Z,94370.34
2023-08-11T22:15:26.475Z,94375.28
2023-08-11T22:17:54.804Z,94376.81
2023-08-11T22:20:22.128Z,94377.09
2023-08-11T22:22:48.851Z,94376.31
2023-08-11T22:25:16.151Z,94380.31
2023-08-11T22:27:43.183Z,94381.56
2023-08-11T22:30:10.296Z,94376.59
2023-08-11T22:32:37.023Z,94380.16
2023-08-11T22:35:04.173Z,94383.56
2023-08-11T22:37:31.092Z,94378.25
2023-08-11T22:39:57.780Z,94372.22
2023-08-11T22:42:26.430Z,94369.44
2023-08-11T22:44:55.162Z,94378.50
2023-08-11T22:47:23.451Z,94372.94
2023-08-11T22:49:50.700Z,94378.50
2023-08-11T22:52:18.803Z,94369.78
2023-08-11T22:54:45.555Z,94368.47
2023-08-11T22:57:12.495Z,94364.34
2023-08-11T22:59:39.466Z,94370.66
2023-08-11T23:02:06.329Z,94364.47
2023-08-11T23:04:33.125Z,94360.59
2023-08-11T23:06:59.856Z,94360.59
2023-08-11T23:09:26.629Z,94357.19
2023-08-11T23:11:54.377Z,94359.50
2023-08-11T23:14:21.072Z,94357.63
2023-08-11T23:16:47.760Z,94362.03
2023-08-11T23:19:14.448Z,94360.44
2023-08-11T23:21:41.099Z,94362.13
2023-08-11T23:24:08.281Z,94353.81
2023-08-11T23:26:34.964Z,94355.69
2023-08-11T23:29:01.704Z,94354.88
2023-08-11T23:31:28.479Z,94353.03
2023-08-11T23:33:55.193Z,94358.25
2023-08-11T23:36:21.859Z,94349.28
2023-08-11T23:38:48.961Z,94354.97
2023-08-11T23:41:15.694Z,94355.22
2023-08-11T23:43:42.422Z,94355.22
2023-08-11T23:46:14.676Z,94347.03
2023-08-11T23:48:45.023Z,94347.63
2023-08-11T23:51:11.996Z,94349.94
2023-08-11T23:53:38.710Z,94344.84
2023-08-11T23:56:05.446Z,94344.06
2023-08-11T23:58:32.164Z,94343.72
